sensor_id;sensor_type;location;lat;lon;timestamp;P1;durP1;ratioP1;P2;durP2;ratioP2
8319;SDS011;4197;42.130;24.746;2022-08-19T00:01:53;9.73;;;6.65;;
8319;SDS011;4197;42.130;24.746;2022-08-19T00:04:26;9.77;;;6.78;;
8319;SDS011;4197;42.130;24.746;2022-08-19T00:06:57;13.55;;;6.68;;
8319;SDS011;4197;42.130;24.746;2022-08-19T00:09:25;9.35;;;7.20;;
8319;SDS011;4197;42.130;24.746;2022-08-19T00:11:55;7.80;;;6.55;;
8319;SDS011;4197;42.130;24.746;2022-08-19T00:14:24;7.88;;;6.97;;
8319;SDS011;4197;42.130;24.746;2022-08-19T00:16:53;10.07;;;7.15;;
8319;SDS011;4197;42.130;24.746;2022-08-19T00:19:22;8.88;;;7.60;;
8319;SDS011;4197;42.130;24.746;2022-08-19T00:21:52;9.98;;;7.55;;
8319;SDS011;4197;42.130;24.746;2022-08-19T00:24:22;8.10;;;7.30;;
8319;SDS011;4197;42.130;24.746;2022-08-19T00:26:51;9.63;;;7.05;;
8319;SDS011;4197;42.130;24.746;2022-08-19T00:29:21;9.82;;;8.25;;
8319;SDS011;4197;42.130;24.746;2022-08-19T00:31:52;9.15;;;7.75;;
8319;SDS011;4197;42.130;24.746;2022-08-19T00:34:21;10.27;;;7.95;;
8319;SDS011;4197;42.130;24.746;2022-08-19T00:36:49;10.75;;;7.47;;
8319;SDS011;4197;42.130;24.746;2022-08-19T00:39:19;10.52;;;8.13;;
8319;SDS011;4197;42.130;24.746;2022-08-19T00:41:47;10.68;;;8.50;;
8319;SDS011;4197;42.130;24.746;2022-08-19T00:44:18;12.98;;;8.52;;
8319;SDS011;4197;42.130;24.746;2022-08-19T00:46:53;10.30;;;8.27;;
8319;SDS011;4197;42.130;24.746;2022-08-19T00:49:24;12.82;;;9.25;;
8319;SDS011;4197;42.130;24.746;2022-08-19T00:51:56;13.32;;;8.15;;
8319;SDS011;4197;42.130;24.746;2022-08-19T00:54:29;13.52;;;9.75;;
8319;SDS011;4197;42.130;24.746;2022-08-19T00:56:59;10.48;;;8.60;;
8319;SDS011;4197;42.130;24.746;2022-08-19T00:59:32;12.27;;;8.82;;
8319;SDS011;4197;42.130;24.746;2022-08-19T01:02:24;12.82;;;8.40;;
8319;SDS011;4197;42.130;24.746;2022-08-19T01:04:53;9.75;;;8.73;;
8319;SDS011;4197;42.130;24.746;2022-08-19T01:07:22;9.70;;;8.45;;
8319;SDS011;4197;42.130;24.746;2022-08-19T01:09:51;9.52;;;8.52;;
8319;SDS011;4197;42.130;24.746;2022-08-19T01:12:20;10.63;;;8.45;;
8319;SDS011;4197;42.130;24.746;2022-08-19T01:14:49;11.07;;;8.25;;
8319;SDS011;4197;42.130;24.746;2022-08-19T01:17:20;11.93;;;9.25;;
8319;SDS011;4197;42.130;24.746;2022-08-19T01:19:48;10.45;;;8.80;;
8319;SDS011;4197;42.130;24.746;2022-08-19T01:22:18;9.95;;;7.97;;
8319;SDS011;4197;42.130;24.746;2022-08-19T01:24:59;12.98;;;9.32;;
8319;SDS011;4197;42.130;24.746;2022-08-19T01:27:36;9.77;;;8.77;;
8319;SDS011;4197;42.130;24.746;2022-08-19T01:30:10;10.45;;;8.85;;
8319;SDS011;4197;42.130;24.746;2022-08-19T01:32:40;10.80;;;8.90;;
8319;SDS011;4197;42.130;24.746;2022-08-19T01:35:10;10.48;;;8.57;;
8319;SDS011;4197;42.130;24.746;2022-08-19T01:37:45;11.32;;;9.48;;
8319;SDS011;4197;42.130;24.746;2022-08-19T01:40:16;11.85;;;8.88;;
8319;SDS011;4197;42.130;24.746;2022-08-19T01:42:46;13.57;;;9.45;;
8319;SDS011;4197;42.130;24.746;2022-08-19T01:45:15;13.80;;;9.15;;
8319;SDS011;4197;42.130;24.746;2022-08-19T01:47:43;15.20;;;9.73;;
8319;SDS011;4197;42.130;24.746;2022-08-19T01:50:27;12.50;;;9.45;;
8319;SDS011;4197;42.130;24.746;2022-08-19T01:52:56;13.40;;;9.25;;
8319;SDS011;4197;42.130;24.746;2022-08-19T01:55:33;11.98;;;9.48;;
8319;SDS011;4197;42.130;24.746;2022-08-19T01:58:07;13.00;;;9.23;;
8319;SDS011;4197;42.130;24.746;2022-08-19T02:00:39;16.10;;;10.00;;
8319;SDS011;4197;42.130;24.746;2022-08-19T02:03:08;11.52;;;8.52;;
8319;SDS011;4197;42.130;24.746;2022-08-19T02:05:37;10.32;;;8.77;;
8319;SDS011;4197;42.130;24.746;2022-08-19T02:08:08;11.75;;;9.30;;
8319;SDS011;4197;42.130;24.746;2022-08-19T02:10:38;10.48;;;8.88;;
8319;SDS011;4197;42.130;24.746;2022-08-19T02:13:08;12.73;;;9.00;;
8319;SDS011;4197;42.130;24.746;2022-08-19T02:15:37;11.55;;;9.82;;
8319;SDS011;4197;42.130;24.746;2022-08-19T02:18:05;13.65;;;9.57;;
8319;SDS011;4197;42.130;24.746;2022-08-19T02:20:34;11.90;;;9.73;;
8319;SDS011;4197;42.130;24.746;2022-08-19T02:23:03;10.68;;;9.02;;
8319;SDS011;4197;42.130;24.746;2022-08-19T02:25:43;14.48;;;10.25;;
8319;SDS011;4197;42.130;24.746;2022-08-19T02:28:13;12.95;;;9.57;;
8319;SDS011;4197;42.130;24.746;2022-08-19T02:30:44;13.25;;;9.27;;
8319;SDS011;4197;42.130;24.746;2022-08-19T02:33:15;14.95;;;10.10;;
8319;SDS011;4197;42.130;24.746;2022-08-19T02:35:44;14.15;;;9.48;;
8319;SDS011;4197;42.130;24.746;2022-08-19T02:38:14;14.80;;;9.43;;
8319;SDS011;4197;42.130;24.746;2022-08-19T02:40:57;12.82;;;9.25;;
8319;SDS011;4197;42.130;24.746;2022-08-19T02:43:29;13.18;;;8.90;;
8319;SDS011;4197;42.130;24.746;2022-08-19T02:46:02;13.43;;;10.20;;
8319;SDS011;4197;42.130;24.746;2022-08-19T02:48:40;12.02;;;9.77;;
8319;SDS011;4197;42.130;24.746;2022-08-19T02:51:08;13.40;;;9.80;;
8319;SDS011;4197;42.130;24.746;2022-08-19T02:53:42;14.80;;;9.57;;
8319;SDS011;4197;42.130;24.746;2022-08-19T02:56:12;17.23;;;9.48;;
8319;SDS011;4197;42.130;24.746;2022-08-19T02:58:40;13.82;;;9.77;;
8319;SDS011;4197;42.130;24.746;2022-08-19T03:01:10;14.80;;;10.13;;
8319;SDS011;4197;42.130;24.746;2022-08-19T03:03:47;16.65;;;9.88;;
8319;SDS011;4197;42.130;24.746;2022-08-19T03:06:17;12.38;;;9.20;;
8319;SDS011;4197;42.130;24.746;2022-08-19T03:08:47;15.55;;;10.27;;
8319;SDS011;4197;42.130;24.746;2022-08-19T03:11:18;12.00;;;10.07;;
8319;SDS011;4197;42.130;24.746;2022-08-19T03:13:48;16.92;;;11.20;;
8319;SDS011;4197;42.130;24.746;2022-08-19T03:16:17;17.67;;;10.63;;
8319;SDS011;4197;42.130;24.746;2022-08-19T03:18:46;15.68;;;9.70;;
8319;SDS011;4197;42.130;24.746;2022-08-19T03:21:16;15.95;;;9.63;;
8319;SDS011;4197;42.130;24.746;2022-08-19T03:23:47;13.27;;;9.20;;
8319;SDS011;4197;42.130;24.746;2022-08-19T03:26:17;14.63;;;10.25;;
8319;SDS011;4197;42.130;24.746;2022-08-19T03:28:46;13.40;;;9.77;;
8319;SDS011;4197;42.130;24.746;2022-08-19T03:31:24;14.93;;;9.35;;
8319;SDS011;4197;42.130;24.746;2022-08-19T03:34:10;11.57;;;9.48;;
8319;SDS011;4197;42.130;24.746;2022-08-19T03:36:40;13.45;;;9.52;;
8319;SDS011;4197;42.130;24.746;2022-08-19T03:39:09;18.95;;;9.95;;
8319;SDS011;4197;42.130;24.746;2022-08-19T03:41:40;14.50;;;9.05;;
8319;SDS011;4197;42.130;24.746;2022-08-19T03:44:14;19.23;;;9.88;;
8319;SDS011;4197;42.130;24.746;2022-08-19T03:46:47;15.88;;;9.05;;
8319;SDS011;4197;42.130;24.746;2022-08-19T03:49:17;16.50;;;10.18;;
8319;SDS011;4197;42.130;24.746;2022-08-19T03:51:46;13.93;;;9.93;;
8319;SDS011;4197;42.130;24.746;2022-08-19T03:54:27;14.07;;;9.40;;
8319;SDS011;4197;42.130;24.746;2022-08-19T03:56:57;17.88;;;10.43;;
8319;SDS011;4197;42.130;24.746;2022-08-19T03:59:26;16.05;;;10.70;;
8319;SDS011;4197;42.130;24.746;2022-08-19T04:02:00;14.45;;;10.55;;
8319;SDS011;4197;42.130;24.746;2022-08-19T04:04:30;14.38;;;10.02;;
8319;SDS011;4197;42.130;24.746;2022-08-19T04:06:58;17.23;;;11.25;;
8319;SDS011;4197;42.130;24.746;2022-08-19T04:09:26;21.08;;;11.13;;
8319;SDS011;4197;42.130;24.746;2022-08-19T04:11:55;16.88;;;11.13;;
8319;SDS011;4197;42.130;24.746;2022-08-19T04:14:26;21.48;;;10.85;;
8319;SDS011;4197;42.130;24.746;2022-08-19T04:16:56;21.42;;;9.93;;
8319;SDS011;4197;42.130;24.746;2022-08-19T04:19:26;22.00;;;12.48;;
8319;SDS011;4197;42.130;24.746;2022-08-19T04:21:56;19.00;;;10.85;;
8319;SDS011;4197;42.130;24.746;2022-08-19T04:24:24;15.88;;;10.63;;
8319;SDS011;4197;42.130;24.746;2022-08-19T04:26:53;19.17;;;11.77;;
8319;SDS011;4197;42.130;24.746;2022-08-19T04:29:24;21.00;;;11.98;;
8319;SDS011;4197;42.130;24.746;2022-08-19T04:31:54;21.98;;;11.68;;
8319;SDS011;4197;42.130;24.746;2022-08-19T04:34:24;27.80;;;13.05;;
8319;SDS011;4197;42.130;24.746;2022-08-19T04:36:55;26.60;;;13.18;;
8319;SDS011;4197;42.130;24.746;2022-08-19T04:39:29;17.85;;;12.10;;
8319;SDS011;4197;42.130;24.746;2022-08-19T04:42:16;21.40;;;12.63;;
8319;SDS011;4197;42.130;24.746;2022-08-19T04:45:04;22.67;;;12.93;;
8319;SDS011;4197;42.130;24.746;2022-08-19T04:47:35;18.15;;;11.85;;
8319;SDS011;4197;42.130;24.746;2022-08-19T04:50:23;19.40;;;11.75;;
8319;SDS011;4197;42.130;24.746;2022-08-19T04:52:52;19.02;;;11.43;;
8319;SDS011;4197;42.130;24.746;2022-08-19T04:55:23;22.13;;;13.40;;
8319;SDS011;4197;42.130;24.746;2022-08-19T04:57:53;27.13;;;13.77;;
8319;SDS011;4197;42.130;24.746;2022-08-19T05:00:23;26.85;;;12.98;;
8319;SDS011;4197;42.130;24.746;2022-08-19T05:02:51;31.65;;;13.93;;
8319;SDS011;4197;42.130;24.746;2022-08-19T05:05:20;35.15;;;13.85;;
8319;SDS011;4197;42.130;24.746;2022-08-19T05:07:48;21.38;;;11.90;;
8319;SDS011;4197;42.130;24.746;2022-08-19T05:10:16;21.00;;;11.05;;
8319;SDS011;4197;42.130;24.746;2022-08-19T05:12:45;22.27;;;11.20;;
8319;SDS011;4197;42.130;24.746;2022-08-19T05:15:13;22.40;;;11.07;;
8319;SDS011;4197;42.130;24.746;2022-08-19T05:17:42;19.17;;;10.15;;
8319;SDS011;4197;42.130;24.746;2022-08-19T05:20:31;19.13;;;10.18;;
8319;SDS011;4197;42.130;24.746;2022-08-19T05:23:19;15.90;;;10.60;;
8319;SDS011;4197;42.130;24.746;2022-08-19T05:25:49;18.40;;;9.32;;
8319;SDS011;4197;42.130;24.746;2022-08-19T05:28:19;11.32;;;7.80;;
8319;SDS011;4197;42.130;24.746;2022-08-19T05:30:48;13.07;;;8.05;;
8319;SDS011;4197;42.130;24.746;2022-08-19T05:33:18;11.90;;;8.00;;
8319;SDS011;4197;42.130;24.746;2022-08-19T05:35:47;11.13;;;7.53;;
8319;SDS011;4197;42.130;24.746;2022-08-19T05:38:16;8.65;;;7.30;;
8319;SDS011;4197;42.130;24.746;2022-08-19T05:40:45;9.95;;;6.45;;
8319;SDS011;4197;42.130;24.746;2022-08-19T05:43:16;11.68;;;7.18;;
8319;SDS011;4197;42.130;24.746;2022-08-19T05:45:45;9.35;;;6.82;;
8319;SDS011;4197;42.130;24.746;2022-08-19T05:48:13;12.82;;;6.95;;
8319;SDS011;4197;42.130;24.746;2022-08-19T05:50:45;10.45;;;6.72;;
8319;SDS011;4197;42.130;24.746;2022-08-19T05:53:16;9.77;;;7.10;;
8319;SDS011;4197;42.130;24.746;2022-08-19T05:55:45;10.23;;;6.85;;
8319;SDS011;4197;42.130;24.746;2022-08-19T05:58:13;17.50;;;7.35;;
8319;SDS011;4197;42.130;24.746;2022-08-19T06:00:42;9.82;;;7.75;;
8319;SDS011;4197;42.130;24.746;2022-08-19T06:03:12;12.82;;;7.65;;
8319;SDS011;4197;42.130;24.746;2022-08-19T06:05:40;7.78;;;6.95;;
8319;SDS011;4197;42.130;24.746;2022-08-19T06:08:19;13.45;;;7.10;;
8319;SDS011;4197;42.130;24.746;2022-08-19T06:13:44;15.43;;;6.78;;
8319;SDS011;4197;42.130;24.746;2022-08-19T06:16:25;15.10;;;7.53;;
8319;SDS011;4197;42.130;24.746;2022-08-19T06:18:55;16.23;;;7.80;;
8319;SDS011;4197;42.130;24.746;2022-08-19T06:21:25;14.30;;;8.18;;
8319;SDS011;4197;42.130;24.746;2022-08-19T06:23:56;10.73;;;7.72;;
8319;SDS011;4197;42.130;24.746;2022-08-19T06:26:26;10.40;;;6.75;;
8319;SDS011;4197;42.130;24.746;2022-08-19T06:28:54;14.07;;;7.63;;
8319;SDS011;4197;42.130;24.746;2022-08-19T06:31:23;9.75;;;7.22;;
8319;SDS011;4197;42.130;24.746;2022-08-19T06:33:52;10.48;;;7.75;;
8319;SDS011;4197;42.130;24.746;2022-08-19T06:36:23;19.63;;;7.75;;
8319;SDS011;4197;42.130;24.746;2022-08-19T06:38:53;11.23;;;8.02;;
8319;SDS011;4197;42.130;24.746;2022-08-19T06:41:24;9.48;;;7.15;;
8319;SDS011;4197;42.130;24.746;2022-08-19T06:43:53;10.65;;;7.05;;
8319;SDS011;4197;42.130;24.746;2022-08-19T06:46:23;9.77;;;7.18;;
8319;SDS011;4197;42.130;24.746;2022-08-19T06:48:52;8.98;;;7.05;;
8319;SDS011;4197;42.130;24.746;2022-08-19T06:51:21;8.75;;;6.60;;
8319;SDS011;4197;42.130;24.746;2022-08-19T06:53:51;8.43;;;7.00;;
8319;SDS011;4197;42.130;24.746;2022-08-19T06:56:21;9.80;;;7.05;;
8319;SDS011;4197;42.130;24.746;2022-08-19T06:58:53;16.60;;;7.78;;
8319;SDS011;4197;42.130;24.746;2022-08-19T07:01:21;9.48;;;8.13;;
8319;SDS011;4197;42.130;24.746;2022-08-19T07:03:50;9.68;;;7.15;;
8319;SDS011;4197;42.130;24.746;2022-08-19T07:06:18;8.57;;;7.05;;
8319;SDS011;4197;42.130;24.746;2022-08-19T07:09:07;11.73;;;7.07;;
8319;SDS011;4197;42.130;24.746;2022-08-19T07:11:37;11.85;;;7.30;;
8319;SDS011;4197;42.130;24.746;2022-08-19T07:14:07;15.35;;;7.47;;
8319;SDS011;4197;42.130;24.746;2022-08-19T07:16:45;9.98;;;6.93;;
8319;SDS011;4197;42.130;24.746;2022-08-19T07:19:15;13.57;;;7.47;;
8319;SDS011;4197;42.130;24.746;2022-08-19T07:21:45;8.20;;;6.50;;
8319;SDS011;4197;42.130;24.746;2022-08-19T07:24:19;8.48;;;7.15;;
8319;SDS011;4197;42.130;24.746;2022-08-19T07:26:50;11.27;;;6.53;;
8319;SDS011;4197;42.130;24.746;2022-08-19T07:29:22;10.30;;;6.03;;
8319;SDS011;4197;42.130;24.746;2022-08-19T07:31:54;12.60;;;7.10;;
8319;SDS011;4197;42.130;24.746;2022-08-19T07:34:26;13.52;;;7.03;;
8319;SDS011;4197;42.130;24.746;2022-08-19T07:36:56;8.45;;;6.30;;
8319;SDS011;4197;42.130;24.746;2022-08-19T07:39:27;6.80;;;6.10;;
8319;SDS011;4197;42.130;24.746;2022-08-19T07:41:57;9.15;;;6.43;;
8319;SDS011;4197;42.130;24.746;2022-08-19T07:44:29;9.18;;;6.10;;
8319;SDS011;4197;42.130;24.746;2022-08-19T07:46:57;10.25;;;6.70;;
8319;SDS011;4197;42.130;24.746;2022-08-19T07:49:26;6.15;;;5.53;;
8319;SDS011;4197;42.130;24.746;2022-08-19T07:51:56;8.80;;;5.60;;
8319;SDS011;4197;42.130;24.746;2022-08-19T07:54:25;11.43;;;5.72;;
8319;SDS011;4197;42.130;24.746;2022-08-19T07:56:56;8.25;;;5.72;;
8319;SDS011;4197;42.130;24.746;2022-08-19T07:59:25;7.53;;;5.82;;
8319;SDS011;4197;42.130;24.746;2022-08-19T08:01:56;9.15;;;6.10;;
8319;SDS011;4197;42.130;24.746;2022-08-19T08:04:27;7.72;;;5.43;;
8319;SDS011;4197;42.130;24.746;2022-08-19T08:07:13;8.93;;;5.78;;
8319;SDS011;4197;42.130;24.746;2022-08-19T08:10:00;10.88;;;6.00;;
8319;SDS011;4197;42.130;24.746;2022-08-19T08:12:30;11.15;;;5.28;;
8319;SDS011;4197;42.130;24.746;2022-08-19T08:15:05;8.10;;;6.20;;
8319;SDS011;4197;42.130;24.746;2022-08-19T08:17:39;6.53;;;5.70;;
8319;SDS011;4197;42.130;24.746;2022-08-19T08:20:15;12.18;;;5.43;;
8319;SDS011;4197;42.130;24.746;2022-08-19T08:22:44;8.43;;;5.28;;
8319;SDS011;4197;42.130;24.746;2022-08-19T08:25:30;7.85;;;5.45;;
8319;SDS011;4197;42.130;24.746;2022-08-19T08:28:00;8.18;;;5.30;;
8319;SDS011;4197;42.130;24.746;2022-08-19T08:30:29;7.18;;;6.03;;
8319;SDS011;4197;42.130;24.746;2022-08-19T08:33:01;8.23;;;5.47;;
8319;SDS011;4197;42.130;24.746;2022-08-19T08:35:29;8.52;;;5.38;;
8319;SDS011;4197;42.130;24.746;2022-08-19T08:37:58;6.88;;;5.32;;
8319;SDS011;4197;42.130;24.746;2022-08-19T08:40:29;9.25;;;5.80;;
8319;SDS011;4197;42.130;24.746;2022-08-19T08:43:02;6.88;;;6.00;;
8319;SDS011;4197;42.130;24.746;2022-08-19T08:45:43;10.07;;;5.80;;
8319;SDS011;4197;42.130;24.746;2022-08-19T08:48:22;10.68;;;6.40;;
8319;SDS011;4197;42.130;24.746;2022-08-19T08:51:00;9.65;;;5.88;;
8319;SDS011;4197;42.130;24.746;2022-08-19T08:53:34;8.82;;;5.88;;
8319;SDS011;4197;42.130;24.746;2022-08-19T08:56:08;8.23;;;5.82;;
8319;SDS011;4197;42.130;24.746;2022-08-19T08:58:45;6.90;;;5.55;;
8319;SDS011;4197;42.130;24.746;2022-08-19T09:01:20;10.18;;;5.55;;
8319;SDS011;4197;42.130;24.746;2022-08-19T09:03:50;9.23;;;5.65;;
8319;SDS011;4197;42.130;24.746;2022-08-19T09:06:19;7.20;;;5.72;;
8319;SDS011;4197;42.130;24.746;2022-08-19T09:08:59;6.38;;;5.72;;
8319;SDS011;4197;42.130;24.746;2022-08-19T09:11:41;7.03;;;5.47;;
8319;SDS011;4197;42.130;24.746;2022-08-19T09:14:32;6.35;;;5.30;;
8319;SDS011;4197;42.130;24.746;2022-08-19T09:17:20;8.68;;;4.72;;
8319;SDS011;4197;42.130;24.746;2022-08-19T09:19:56;8.60;;;5.72;;
8319;SDS011;4197;42.130;24.746;2022-08-19T09:22:27;6.63;;;5.05;;
8319;SDS011;4197;42.130;24.746;2022-08-19T09:24:55;6.20;;;5.00;;
8319;SDS011;4197;42.130;24.746;2022-08-19T09:27:24;9.00;;;4.85;;
8319;SDS011;4197;42.130;24.746;2022-08-19T09:30:15;8.77;;;5.30;;
8319;SDS011;4197;42.130;24.746;2022-08-19T09:32:45;10.70;;;5.53;;
8319;SDS011;4197;42.130;24.746;2022-08-19T09:35:20;8.00;;;5.30;;
8319;SDS011;4197;42.130;24.746;2022-08-19T09:37:50;8.18;;;5.47;;
8319;SDS011;4197;42.130;24.746;2022-08-19T09:40:24;9.93;;;5.88;;
8319;SDS011;4197;42.130;24.746;2022-08-19T09:42:56;9.75;;;7.78;;
8319;SDS011;4197;42.130;24.746;2022-08-19T09:45:38;7.50;;;5.40;;
8319;SDS011;4197;42.130;24.746;2022-08-19T09:48:07;5.28;;;4.78;;
8319;SDS011;4197;42.130;24.746;2022-08-19T09:50:45;7.90;;;5.30;;
8319;SDS011;4197;42.130;24.746;2022-08-19T09:53:17;8.85;;;5.22;;
8319;SDS011;4197;42.130;24.746;2022-08-19T09:55:50;6.07;;;4.00;;
8319;SDS011;4197;42.130;24.746;2022-08-19T09:58:18;6.28;;;4.90;;
8319;SDS011;4197;42.130;24.746;2022-08-19T10:00:51;7.68;;;4.63;;
8319;SDS011;4197;42.130;24.746;2022-08-19T10:03:20;6.43;;;5.63;;
8319;SDS011;4197;42.130;24.746;2022-08-19T10:05:57;7.63;;;6.07;;
8319;SDS011;4197;42.130;24.746;2022-08-19T10:08:27;8.23;;;5.50;;
8319;SDS011;4197;42.130;24.746;2022-08-19T10:10:57;7.30;;;5.60;;
8319;SDS011;4197;42.130;24.746;2022-08-19T10:13:46;6.20;;;5.35;;
8319;SDS011;4197;42.130;24.746;2022-08-19T10:16:15;8.30;;;4.72;;
8319;SDS011;4197;42.130;24.746;2022-08-19T10:18:46;8.63;;;5.07;;
8319;SDS011;4197;42.130;24.746;2022-08-19T10:21:17;6.68;;;5.25;;
8319;SDS011;4197;42.130;24.746;2022-08-19T10:23:48;10.65;;;5.25;;
8319;SDS011;4197;42.130;24.746;2022-08-19T10:26:19;7.15;;;5.32;;
8319;SDS011;4197;42.130;24.746;2022-08-19T10:28:51;6.40;;;4.95;;
8319;SDS011;4197;42.130;24.746;2022-08-19T10:31:23;5.88;;;5.05;;
8319;SDS011;4197;42.130;24.746;2022-08-19T10:34:15;8.90;;;4.72;;
8319;SDS011;4197;42.130;24.746;2022-08-19T10:36:54;5.28;;;4.40;;
8319;SDS011;4197;42.130;24.746;2022-08-19T10:39:27;6.97;;;5.05;;
8319;SDS011;4197;42.130;24.746;2022-08-19T10:42:08;5.40;;;4.78;;
8319;SDS011;4197;42.130;24.746;2022-08-19T10:44:37;7.18;;;4.60;;
8319;SDS011;4197;42.130;24.746;2022-08-19T10:47:05;6.32;;;4.65;;
8319;SDS011;4197;42.130;24.746;2022-08-19T10:49:51;5.40;;;4.90;;
8319;SDS011;4197;42.130;24.746;2022-08-19T10:52:39;6.78;;;4.97;;
8319;SDS011;4197;42.130;24.746;2022-08-19T10:55:16;6.75;;;4.63;;
8319;SDS011;4197;42.130;24.746;2022-08-19T10:58:09;8.55;;;5.20;;
8319;SDS011;4197;42.130;24.746;2022-08-19T11:00:58;6.22;;;4.63;;
8319;SDS011;4197;42.130;24.746;2022-08-19T11:03:26;5.93;;;4.80;;
8319;SDS011;4197;42.130;24.746;2022-08-19T11:05:59;5.30;;;4.60;;
8319;SDS011;4197;42.130;24.746;2022-08-19T11:08:29;5.80;;;4.55;;
8319;SDS011;4197;42.130;24.746;2022-08-19T11:10:58;5.93;;;4.35;;
8319;SDS011;4197;42.130;24.746;2022-08-19T11:13:29;5.25;;;4.75;;
8319;SDS011;4197;42.130;24.746;2022-08-19T11:16:00;6.63;;;4.85;;
8319;SDS011;4197;42.130;24.746;2022-08-19T11:18:33;6.90;;;5.15;;
8319;SDS011;4197;42.130;24.746;2022-08-19T11:21:07;5.95;;;4.57;;
8319;SDS011;4197;42.130;24.746;2022-08-19T11:23:39;10.10;;;5.53;;
8319;SDS011;4197;42.130;24.746;2022-08-19T11:26:08;7.57;;;4.55;;
8319;SDS011;4197;42.130;24.746;2022-08-19T11:28:36;6.97;;;4.18;;
8319;SDS011;4197;42.130;24.746;2022-08-19T11:31:08;5.10;;;4.10;;
8319;SDS011;4197;42.130;24.746;2022-08-19T11:33:37;8.70;;;3.97;;
8319;SDS011;4197;42.130;24.746;2022-08-19T11:36:06;5.78;;;3.78;;
8319;SDS011;4197;42.130;24.746;2022-08-19T11:38:39;5.32;;;4.03;;
8319;SDS011;4197;42.130;24.746;2022-08-19T11:41:07;6.97;;;4.43;;
8319;SDS011;4197;42.130;24.746;2022-08-19T11:43:36;6.15;;;4.40;;
8319;SDS011;4197;42.130;24.746;2022-08-19T11:46:06;5.90;;;4.25;;
8319;SDS011;4197;42.130;24.746;2022-08-19T11:48:36;5.25;;;4.70;;
8319;SDS011;4197;42.130;24.746;2022-08-19T11:51:06;5.53;;;5.03;;
8319;SDS011;4197;42.130;24.746;2022-08-19T11:53:36;4.95;;;4.45;;
8319;SDS011;4197;42.130;24.746;2022-08-19T11:56:07;9.50;;;4.72;;
8319;SDS011;4197;42.130;24.746;2022-08-19T11:58:36;6.05;;;4.53;;
8319;SDS011;4197;42.130;24.746;2022-08-19T12:01:05;12.32;;;4.40;;
8319;SDS011;4197;42.130;24.746;2022-08-19T12:03:34;5.82;;;4.18;;
8319;SDS011;4197;42.130;24.746;2022-08-19T12:06:03;5.75;;;4.55;;
8319;SDS011;4197;42.130;24.746;2022-08-19T12:08:32;6.68;;;5.15;;
8319;SDS011;4197;42.130;24.746;2022-08-19T12:11:01;5.28;;;4.78;;
8319;SDS011;4197;42.130;24.746;2022-08-19T12:13:31;6.63;;;4.55;;
8319;SDS011;4197;42.130;24.746;2022-08-19T12:15:59;6.22;;;4.82;;
8319;SDS011;4197;42.130;24.746;2022-08-19T12:18:28;8.02;;;4.53;;
8319;SDS011;4197;42.130;24.746;2022-08-19T12:20:56;8.52;;;4.97;;
8319;SDS011;4197;42.130;24.746;2022-08-19T12:23:26;6.75;;;4.53;;
8319;SDS011;4197;42.130;24.746;2022-08-19T12:25:54;4.60;;;4.15;;
8319;SDS011;4197;42.130;24.746;2022-08-19T12:28:23;5.35;;;4.80;;
8319;SDS011;4197;42.130;24.746;2022-08-19T12:30:55;7.03;;;4.93;;
8319;SDS011;4197;42.130;24.746;2022-08-19T12:33:24;7.15;;;4.25;;
8319;SDS011;4197;42.130;24.746;2022-08-19T12:35:54;5.32;;;4.10;;
8319;SDS011;4197;42.130;24.746;2022-08-19T12:38:28;7.32;;;4.32;;
8319;SDS011;4197;42.130;24.746;2022-08-19T12:40:58;4.85;;;4.28;;
8319;SDS011;4197;42.130;24.746;2022-08-19T12:43:26;5.97;;;4.07;;
8319;SDS011;4197;42.130;24.746;2022-08-19T12:45:58;5.68;;;5.00;;
8319;SDS011;4197;42.130;24.746;2022-08-19T12:48:26;6.55;;;4.68;;
8319;SDS011;4197;42.130;24.746;2022-08-19T12:51:00;7.60;;;4.70;;
8319;SDS011;4197;42.130;24.746;2022-08-19T12:53:33;7.07;;;4.93;;
8319;SDS011;4197;42.130;24.746;2022-08-19T12:56:05;11.13;;;4.82;;
8319;SDS011;4197;42.130;24.746;2022-08-19T12:58:38;6.95;;;4.63;;
8319;SDS011;4197;42.130;24.746;2022-08-19T13:01:17;7.45;;;4.90;;
8319;SDS011;4197;42.130;24.746;2022-08-19T13:03:48;7.22;;;4.90;;
8319;SDS011;4197;42.130;24.746;2022-08-19T13:06:18;6.28;;;4.18;;
8319;SDS011;4197;42.130;24.746;2022-08-19T13:08:47;5.82;;;4.30;;
8319;SDS011;4197;42.130;24.746;2022-08-19T13:11:16;6.55;;;4.25;;
8319;SDS011;4197;42.130;24.746;2022-08-19T13:13:47;9.95;;;4.93;;
8319;SDS011;4197;42.130;24.746;2022-08-19T13:16:19;7.47;;;4.68;;
8319;SDS011;4197;42.130;24.746;2022-08-19T13:18:48;4.78;;;4.38;;
8319;SDS011;4197;42.130;24.746;2022-08-19T13:21:18;7.07;;;4.72;;
8319;SDS011;4197;42.130;24.746;2022-08-19T13:23:51;6.28;;;4.32;;
8319;SDS011;4197;42.130;24.746;2022-08-19T13:26:20;5.32;;;4.78;;
8319;SDS011;4197;42.130;24.746;2022-08-19T13:28:49;5.38;;;4.50;;
8319;SDS011;4197;42.130;24.746;2022-08-19T13:31:36;6.15;;;4.22;;
8319;SDS011;4197;42.130;24.746;2022-08-19T13:34:26;5.85;;;4.55;;
8319;SDS011;4197;42.130;24.746;2022-08-19T13:36:58;7.53;;;5.15;;
8319;SDS011;4197;42.130;24.746;2022-08-19T13:39:29;5.30;;;4.10;;
8319;SDS011;4197;42.130;24.746;2022-08-19T13:41:59;7.75;;;4.95;;
8319;SDS011;4197;42.130;24.746;2022-08-19T13:44:27;5.18;;;4.43;;
8319;SDS011;4197;42.130;24.746;2022-08-19T13:47:01;5.85;;;4.50;;
8319;SDS011;4197;42.130;24.746;2022-08-19T13:49:33;4.90;;;4.40;;
8319;SDS011;4197;42.130;24.746;2022-08-19T13:52:02;5.95;;;4.55;;
8319;SDS011;4197;42.130;24.746;2022-08-19T13:54:31;5.93;;;4.35;;
8319;SDS011;4197;42.130;24.746;2022-08-19T13:57:00;7.05;;;4.30;;
8319;SDS011;4197;42.130;24.746;2022-08-19T13:59:28;6.32;;;4.55;;
8319;SDS011;4197;42.130;24.746;2022-08-19T14:01:57;8.18;;;4.70;;
8319;SDS011;4197;42.130;24.746;2022-08-19T14:04:27;5.97;;;4.45;;
8319;SDS011;4197;42.130;24.746;2022-08-19T14:06:55;5.00;;;4.50;;
8319;SDS011;4197;42.130;24.746;2022-08-19T14:09:23;10.63;;;5.03;;
8319;SDS011;4197;42.130;24.746;2022-08-19T14:11:52;5.15;;;4.75;;
8319;SDS011;4197;42.130;24.746;2022-08-19T14:14:20;9.40;;;4.32;;
8319;SDS011;4197;42.130;24.746;2022-08-19T14:16:48;6.18;;;4.63;;
8319;SDS011;4197;42.130;24.746;2022-08-19T14:19:18;8.10;;;4.47;;
8319;SDS011;4197;42.130;24.746;2022-08-19T14:21:48;6.25;;;4.65;;
8319;SDS011;4197;42.130;24.746;2022-08-19T14:24:16;5.13;;;4.55;;
8319;SDS011;4197;42.130;24.746;2022-08-19T14:26:44;5.78;;;4.47;;
8319;SDS011;4197;42.130;24.746;2022-08-19T14:29:12;4.40;;;4.00;;
8319;SDS011;4197;42.130;24.746;2022-08-19T14:31:40;5.07;;;4.35;;
8319;SDS011;4197;42.130;24.746;2022-08-19T14:34:10;7.68;;;4.43;;
8319;SDS011;4197;42.130;24.746;2022-08-19T14:36:39;7.47;;;4.57;;
8319;SDS011;4197;42.130;24.746;2022-08-19T14:39:09;5.45;;;4.32;;
8319;SDS011;4197;42.130;24.746;2022-08-19T14:41:39;6.40;;;4.72;;
8319;SDS011;4197;42.130;24.746;2022-08-19T14:44:08;7.90;;;4.57;;
8319;SDS011;4197;42.130;24.746;2022-08-19T14:46:39;6.10;;;4.35;;
8319;SDS011;4197;42.130;24.746;2022-08-19T14:49:15;7.68;;;4.50;;
8319;SDS011;4197;42.130;24.746;2022-08-19T14:51:44;11.38;;;4.50;;
8319;SDS011;4197;42.130;24.746;2022-08-19T14:54:14;10.65;;;4.80;;
8319;SDS011;4197;42.130;24.746;2022-08-19T14:56:43;6.45;;;4.13;;
8319;SDS011;4197;42.130;24.746;2022-08-19T14:59:11;9.50;;;4.78;;
8319;SDS011;4197;42.130;24.746;2022-08-19T15:01:42;9.40;;;4.38;;
8319;SDS011;4197;42.130;24.746;2022-08-19T15:04:11;8.63;;;4.90;;
8319;SDS011;4197;42.130;24.746;2022-08-19T15:06:39;7.57;;;4.95;;
8319;SDS011;4197;42.130;24.746;2022-08-19T15:09:08;6.10;;;4.45;;
8319;SDS011;4197;42.130;24.746;2022-08-19T15:11:39;7.47;;;4.38;;
8319;SDS011;4197;42.130;24.746;2022-08-19T15:14:07;6.75;;;4.88;;
8319;SDS011;4197;42.130;24.746;2022-08-19T15:16:36;7.53;;;4.60;;
8319;SDS011;4197;42.130;24.746;2022-08-19T15:19:08;4.82;;;4.20;;
8319;SDS011;4197;42.130;24.746;2022-08-19T15:21:36;5.95;;;4.57;;
8319;SDS011;4197;42.130;24.746;2022-08-19T15:24:05;5.88;;;4.50;;